sensor_id;sensor_type;location;lat;lon;timestamp;P1;durP1;ratioP1;P2;durP2;ratioP2
5690;SDS011;2870;42.680;23.364;2023-07-09T00:01:42;10.50;;;5.13;;
5690;SDS011;2870;42.680;23.364;2023-07-09T00:04:09;9.97;;;4.67;;
5690;SDS011;2870;42.680;23.364;2023-07-09T00:06:37;8.37;;;5.03;;
5690;SDS011;2870;42.680;23.364;2023-07-09T00:09:05;8.70;;;5.33;;
5690;SDS011;2870;42.680;23.364;2023-07-09T00:11:38;10.43;;;5.37;;
5690;SDS011;2870;42.680;23.364;2023-07-09T00:14:05;11.03;;;4.80;;
5690;SDS011;2870;42.680;23.364;2023-07-09T00:16:32;10.67;;;5.20;;
5690;SDS011;2870;42.680;23.364;2023-07-09T00:19:00;9.53;;;4.60;;
5690;SDS011;2870;42.680;23.364;2023-07-09T00:21:27;9.17;;;5.40;;
5690;SDS011;2870;42.680;23.364;2023-07-09T00:23:58;13.10;;;4.40;;
5690;SDS011;2870;42.680;23.364;2023-07-09T00:26:29;9.80;;;4.80;;
5690;SDS011;2870;42.680;23.364;2023-07-09T00:28:57;11.37;;;5.87;;
5690;SDS011;2870;42.680;23.364;2023-07-09T00:31:24;11.87;;;4.90;;
5690;SDS011;2870;42.680;23.364;2023-07-09T00:33:51;13.37;;;5.47;;
5690;SDS011;2870;42.680;23.364;2023-07-09T00:36:22;10.20;;;4.80;;
5690;SDS011;2870;42.680;23.364;2023-07-09T00:38:54;12.03;;;5.17;;
5690;SDS011;2870;42.680;23.364;2023-07-09T00:41:24;8.73;;;5.10;;
5690;SDS011;2870;42.680;23.364;2023-07-09T00:43:53;8.50;;;5.00;;
5690;SDS011;2870;42.680;23.364;2023-07-09T00:49:27;10.60;;;4.90;;
5690;SDS011;2870;42.680;23.364;2023-07-09T00:51:57;12.50;;;5.37;;
5690;SDS011;2870;42.680;23.364;2023-07-09T00:54:30;17.70;;;5.07;;
5690;SDS011;2870;42.680;23.364;2023-07-09T00:57:03;9.70;;;4.60;;
5690;SDS011;2870;42.680;23.364;2023-07-09T00:59:37;10.07;;;4.40;;
5690;SDS011;2870;42.680;23.364;2023-07-09T01:02:06;11.50;;;5.50;;
5690;SDS011;2870;42.680;23.364;2023-07-09T01:04:34;8.10;;;4.77;;
5690;SDS011;2870;42.680;23.364;2023-07-09T01:07:02;9.73;;;4.20;;
5690;SDS011;2870;42.680;23.364;2023-07-09T01:09:30;15.50;;;6.07;;
5690;SDS011;2870;42.680;23.364;2023-07-09T01:12:00;9.43;;;5.10;;
5690;SDS011;2870;42.680;23.364;2023-07-09T01:14:29;9.47;;;5.10;;
5690;SDS011;2870;42.680;23.364;2023-07-09T01:16:58;10.43;;;4.80;;
5690;SDS011;2870;42.680;23.364;2023-07-09T01:19:28;11.13;;;4.90;;
5690;SDS011;2870;42.680;23.364;2023-07-09T01:21:57;8.90;;;5.20;;
5690;SDS011;2870;42.680;23.364;2023-07-09T01:27:16;9.00;;;5.30;;
5690;SDS011;2870;42.680;23.364;2023-07-09T01:29:45;11.63;;;4.63;;
5690;SDS011;2870;42.680;23.364;2023-07-09T01:32:14;11.07;;;5.40;;
5690;SDS011;2870;42.680;23.364;2023-07-09T01:34:42;11.20;;;5.13;;
5690;SDS011;2870;42.680;23.364;2023-07-09T01:37:10;7.63;;;5.00;;
5690;SDS011;2870;42.680;23.364;2023-07-09T01:39:38;9.00;;;4.13;;
5690;SDS011;2870;42.680;23.364;2023-07-09T01:42:06;10.97;;;5.13;;
5690;SDS011;2870;42.680;23.364;2023-07-09T01:44:34;19.37;;;7.43;;
5690;SDS011;2870;42.680;23.364;2023-07-09T01:47:01;12.70;;;4.90;;
5690;SDS011;2870;42.680;23.364;2023-07-09T01:49:29;8.53;;;5.27;;
5690;SDS011;2870;42.680;23.364;2023-07-09T01:51:57;10.70;;;5.50;;
5690;SDS011;2870;42.680;23.364;2023-07-09T01:54:27;7.67;;;4.87;;
5690;SDS011;2870;42.680;23.364;2023-07-09T01:57:00;23.33;;;5.20;;
5690;SDS011;2870;42.680;23.364;2023-07-09T01:59:40;16.50;;;5.20;;
5690;SDS011;2870;42.680;23.364;2023-07-09T02:05:15;10.07;;;6.03;;
5690;SDS011;2870;42.680;23.364;2023-07-09T02:07:43;11.57;;;5.87;;
5690;SDS011;2870;42.680;23.364;2023-07-09T02:10:12;16.10;;;6.00;;
5690;SDS011;2870;42.680;23.364;2023-07-09T02:12:39;9.73;;;6.33;;
5690;SDS011;2870;42.680;23.364;2023-07-09T02:15:06;12.87;;;6.40;;
5690;SDS011;2870;42.680;23.364;2023-07-09T02:17:34;11.13;;;6.27;;
5690;SDS011;2870;42.680;23.364;2023-07-09T02:20:01;11.80;;;7.40;;
5690;SDS011;2870;42.680;23.364;2023-07-09T02:22:31;13.57;;;6.20;;
5690;SDS011;2870;42.680;23.364;2023-07-09T02:24:59;14.57;;;7.03;;
5690;SDS011;2870;42.680;23.364;2023-07-09T02:27:27;14.23;;;7.07;;
5690;SDS011;2870;42.680;23.364;2023-07-09T02:29:54;15.30;;;7.23;;
5690;SDS011;2870;42.680;23.364;2023-07-09T02:32:22;12.83;;;6.77;;
5690;SDS011;2870;42.680;23.364;2023-07-09T02:34:51;13.60;;;7.93;;
5690;SDS011;2870;42.680;23.364;2023-07-09T02:37:19;12.07;;;7.73;;
5690;SDS011;2870;42.680;23.364;2023-07-09T02:39:48;14.53;;;8.10;;
5690;SDS011;2870;42.680;23.364;2023-07-09T02:42:16;11.17;;;7.40;;
5690;SDS011;2870;42.680;23.364;2023-07-09T02:44:46;10.07;;;6.50;;
5690;SDS011;2870;42.680;23.364;2023-07-09T02:47:13;9.93;;;6.97;;
5690;SDS011;2870;42.680;23.364;2023-07-09T02:49:41;19.43;;;7.23;;
5690;SDS011;2870;42.680;23.364;2023-07-09T02:52:08;14.53;;;7.00;;
5690;SDS011;2870;42.680;23.364;2023-07-09T02:54:35;14.90;;;8.50;;
5690;SDS011;2870;42.680;23.364;2023-07-09T02:57:02;13.20;;;7.07;;
5690;SDS011;2870;42.680;23.364;2023-07-09T02:59:29;12.73;;;8.10;;
5690;SDS011;2870;42.680;23.364;2023-07-09T03:01:58;14.63;;;7.80;;
5690;SDS011;2870;42.680;23.364;2023-07-09T03:04:25;15.20;;;8.10;;
5690;SDS011;2870;42.680;23.364;2023-07-09T03:06:52;14.53;;;7.83;;
5690;SDS011;2870;42.680;23.364;2023-07-09T03:09:19;14.50;;;7.77;;
5690;SDS011;2870;42.680;23.364;2023-07-09T03:11:46;13.07;;;8.23;;
5690;SDS011;2870;42.680;23.364;2023-07-09T03:14:14;10.50;;;7.20;;
5690;SDS011;2870;42.680;23.364;2023-07-09T03:16:41;24.40;;;8.30;;
5690;SDS011;2870;42.680;23.364;2023-07-09T03:19:09;13.50;;;8.27;;
5690;SDS011;2870;42.680;23.364;2023-07-09T03:21:35;16.60;;;8.97;;
5690;SDS011;2870;42.680;23.364;2023-07-09T03:24:03;15.47;;;9.33;;
5690;SDS011;2870;42.680;23.364;2023-07-09T03:26:30;15.73;;;8.20;;
5690;SDS011;2870;42.680;23.364;2023-07-09T03:28:57;17.40;;;8.17;;
5690;SDS011;2870;42.680;23.364;2023-07-09T03:31:24;14.63;;;9.10;;
5690;SDS011;2870;42.680;23.364;2023-07-09T03:33:51;14.57;;;8.70;;
5690;SDS011;2870;42.680;23.364;2023-07-09T03:36:20;11.87;;;8.10;;
5690;SDS011;2870;42.680;23.364;2023-07-09T03:38:47;12.03;;;8.17;;
5690;SDS011;2870;42.680;23.364;2023-07-09T03:41:14;14.40;;;8.97;;
5690;SDS011;2870;42.680;23.364;2023-07-09T03:43:42;11.63;;;8.10;;
5690;SDS011;2870;42.680;23.364;2023-07-09T03:46:09;14.63;;;8.60;;
5690;SDS011;2870;42.680;23.364;2023-07-09T03:48:36;12.00;;;8.00;;
5690;SDS011;2870;42.680;23.364;2023-07-09T03:51:03;12.03;;;8.37;;
5690;SDS011;2870;42.680;23.364;2023-07-09T03:53:31;12.57;;;8.10;;
5690;SDS011;2870;42.680;23.364;2023-07-09T03:55:58;13.90;;;8.40;;
5690;SDS011;2870;42.680;23.364;2023-07-09T03:58:25;13.30;;;7.80;;
5690;SDS011;2870;42.680;23.364;2023-07-09T04:00:52;15.63;;;8.50;;
5690;SDS011;2870;42.680;23.364;2023-07-09T04:03:20;15.27;;;9.27;;
5690;SDS011;2870;42.680;23.364;2023-07-09T04:05:47;14.07;;;8.77;;
5690;SDS011;2870;42.680;23.364;2023-07-09T04:08:14;15.53;;;8.77;;
5690;SDS011;2870;42.680;23.364;2023-07-09T04:10:43;11.87;;;9.00;;
5690;SDS011;2870;42.680;23.364;2023-07-09T04:13:09;14.80;;;9.10;;
5690;SDS011;2870;42.680;23.364;2023-07-09T04:15:36;13.03;;;9.30;;
5690;SDS011;2870;42.680;23.364;2023-07-09T04:18:03;18.60;;;10.37;;
5690;SDS011;2870;42.680;23.364;2023-07-09T04:20:30;17.83;;;9.00;;
5690;SDS011;2870;42.680;23.364;2023-07-09T04:22:57;14.03;;;8.87;;
5690;SDS011;2870;42.680;23.364;2023-07-09T04:25:23;19.63;;;8.90;;
5690;SDS011;2870;42.680;23.364;2023-07-09T04:27:52;14.57;;;9.47;;
5690;SDS011;2870;42.680;23.364;2023-07-09T04:30:19;22.37;;;9.37;;
5690;SDS011;2870;42.680;23.364;2023-07-09T04:32:46;18.13;;;8.30;;
5690;SDS011;2870;42.680;23.364;2023-07-09T04:35:13;16.20;;;8.47;;
5690;SDS011;2870;42.680;23.364;2023-07-09T04:37:41;19.53;;;8.60;;
5690;SDS011;2870;42.680;23.364;2023-07-09T04:40:08;14.50;;;8.50;;
5690;SDS011;2870;42.680;23.364;2023-07-09T04:42:37;17.63;;;7.50;;
5690;SDS011;2870;42.680;23.364;2023-07-09T04:45:07;13.00;;;7.23;;
5690;SDS011;2870;42.680;23.364;2023-07-09T04:47:36;14.00;;;9.03;;
5690;SDS011;2870;42.680;23.364;2023-07-09T04:50:03;11.60;;;7.57;;
5690;SDS011;2870;42.680;23.364;2023-07-09T04:52:32;14.90;;;8.50;;
5690;SDS011;2870;42.680;23.364;2023-07-09T04:54:59;14.23;;;8.90;;
5690;SDS011;2870;42.680;23.364;2023-07-09T04:57:27;11.80;;;8.63;;
5690;SDS011;2870;42.680;23.364;2023-07-09T04:59:54;16.90;;;9.70;;
5690;SDS011;2870;42.680;23.364;2023-07-09T05:02:22;17.70;;;8.90;;
5690;SDS011;2870;42.680;23.364;2023-07-09T05:04:49;17.90;;;8.27;;
5690;SDS011;2870;42.680;23.364;2023-07-09T05:07:16;14.07;;;9.23;;
5690;SDS011;2870;42.680;23.364;2023-07-09T05:09:43;16.07;;;9.03;;
5690;SDS011;2870;42.680;23.364;2023-07-09T05:12:10;12.13;;;8.07;;
5690;SDS011;2870;42.680;23.364;2023-07-09T05:14:37;15.87;;;8.73;;
5690;SDS011;2870;42.680;23.364;2023-07-09T05:17:04;16.60;;;8.37;;
5690;SDS011;2870;42.680;23.364;2023-07-09T05:19:33;16.60;;;8.60;;
5690;SDS011;2870;42.680;23.364;2023-07-09T05:22:00;10.93;;;7.40;;
5690;SDS011;2870;42.680;23.364;2023-07-09T05:24:27;13.43;;;8.60;;
5690;SDS011;2870;42.680;23.364;2023-07-09T05:26:54;14.97;;;7.90;;
5690;SDS011;2870;42.680;23.364;2023-07-09T05:29:21;11.07;;;7.80;;
5690;SDS011;2870;42.680;23.364;2023-07-09T05:31:48;15.93;;;6.77;;
5690;SDS011;2870;42.680;23.364;2023-07-09T05:34:14;16.90;;;7.40;;
5690;SDS011;2870;42.680;23.364;2023-07-09T05:36:43;15.37;;;7.27;;
5690;SDS011;2870;42.680;23.364;2023-07-09T05:39:09;19.87;;;7.30;;
5690;SDS011;2870;42.680;23.364;2023-07-09T05:41:37;11.23;;;7.80;;
5690;SDS011;2870;42.680;23.364;2023-07-09T05:44:03;12.10;;;7.37;;
5690;SDS011;2870;42.680;23.364;2023-07-09T05:46:33;10.60;;;6.73;;
5690;SDS011;2870;42.680;23.364;2023-07-09T05:49:02;9.33;;;5.63;;
5690;SDS011;2870;42.680;23.364;2023-07-09T05:51:29;11.37;;;5.60;;
5690;SDS011;2870;42.680;23.364;2023-07-09T05:53:58;12.23;;;6.47;;
5690;SDS011;2870;42.680;23.364;2023-07-09T05:56:25;13.57;;;5.97;;
5690;SDS011;2870;42.680;23.364;2023-07-09T05:58:52;9.53;;;5.70;;
5690;SDS011;2870;42.680;23.364;2023-07-09T06:01:19;11.00;;;6.67;;
5690;SDS011;2870;42.680;23.364;2023-07-09T06:03:46;9.20;;;5.87;;
5690;SDS011;2870;42.680;23.364;2023-07-09T06:06:13;11.87;;;6.20;;
5690;SDS011;2870;42.680;23.364;2023-07-09T06:08:40;12.87;;;7.40;;
5690;SDS011;2870;42.680;23.364;2023-07-09T06:11:08;24.60;;;6.70;;
5690;SDS011;2870;42.680;23.364;2023-07-09T06:13:35;10.00;;;6.20;;
5690;SDS011;2870;42.680;23.364;2023-07-09T06:16:02;10.93;;;5.60;;
5690;SDS011;2870;42.680;23.364;2023-07-09T06:18:29;17.10;;;7.73;;
5690;SDS011;2870;42.680;23.364;2023-07-09T06:20:57;13.10;;;5.60;;
5690;SDS011;2870;42.680;23.364;2023-07-09T06:23:25;11.30;;;5.20;;
5690;SDS011;2870;42.680;23.364;2023-07-09T06:25:52;8.33;;;5.10;;
5690;SDS011;2870;42.680;23.364;2023-07-09T06:28:20;14.73;;;6.03;;
5690;SDS011;2870;42.680;23.364;2023-07-09T06:30:49;16.57;;;5.77;;
5690;SDS011;2870;42.680;23.364;2023-07-09T06:33:17;11.43;;;5.70;;
5690;SDS011;2870;42.680;23.364;2023-07-09T06:35:48;14.80;;;5.87;;
5690;SDS011;2870;42.680;23.364;2023-07-09T06:38:17;9.60;;;5.60;;
5690;SDS011;2870;42.680;23.364;2023-07-09T06:40:44;10.97;;;5.10;;
5690;SDS011;2870;42.680;23.364;2023-07-09T06:43:11;16.63;;;5.90;;
5690;SDS011;2870;42.680;23.364;2023-07-09T06:45:41;9.50;;;5.70;;
5690;SDS011;2870;42.680;23.364;2023-07-09T06:48:14;11.93;;;5.07;;
5690;SDS011;2870;42.680;23.364;2023-07-09T06:50:41;16.13;;;6.20;;
5690;SDS011;2870;42.680;23.364;2023-07-09T06:53:08;14.00;;;5.60;;
5690;SDS011;2870;42.680;23.364;2023-07-09T06:55:35;12.63;;;5.27;;
5690;SDS011;2870;42.680;23.364;2023-07-09T06:58:02;15.43;;;6.20;;
5690;SDS011;2870;42.680;23.364;2023-07-09T07:00:29;10.70;;;6.40;;
5690;SDS011;2870;42.680;23.364;2023-07-09T07:02:57;9.90;;;5.50;;
5690;SDS011;2870;42.680;23.364;2023-07-09T07:05:24;16.80;;;6.23;;
5690;SDS011;2870;42.680;23.364;2023-07-09T07:07:51;13.60;;;5.67;;
5690;SDS011;2870;42.680;23.364;2023-07-09T07:10:19;9.70;;;5.33;;
5690;SDS011;2870;42.680;23.364;2023-07-09T07:12:47;9.60;;;5.67;;
5690;SDS011;2870;42.680;23.364;2023-07-09T07:15:15;11.27;;;5.60;;
5690;SDS011;2870;42.680;23.364;2023-07-09T07:17:43;18.17;;;5.70;;
5690;SDS011;2870;42.680;23.364;2023-07-09T07:20:12;13.53;;;5.83;;
5690;SDS011;2870;42.680;23.364;2023-07-09T07:22:40;14.10;;;5.07;;
5690;SDS011;2870;42.680;23.364;2023-07-09T07:25:07;11.60;;;5.37;;
5690;SDS011;2870;42.680;23.364;2023-07-09T07:27:35;16.07;;;5.80;;
5690;SDS011;2870;42.680;23.364;2023-07-09T07:30:03;11.47;;;5.10;;
5690;SDS011;2870;42.680;23.364;2023-07-09T07:32:31;17.37;;;5.00;;
5690;SDS011;2870;42.680;23.364;2023-07-09T07:34:59;8.73;;;5.07;;
5690;SDS011;2870;42.680;23.364;2023-07-09T07:37:27;15.03;;;5.10;;
5690;SDS011;2870;42.680;23.364;2023-07-09T07:39:53;9.87;;;4.57;;
5690;SDS011;2870;42.680;23.364;2023-07-09T07:42:20;11.57;;;5.07;;
5690;SDS011;2870;42.680;23.364;2023-07-09T07:44:47;20.13;;;5.27;;
5690;SDS011;2870;42.680;23.364;2023-07-09T07:47:14;10.60;;;4.80;;
5690;SDS011;2870;42.680;23.364;2023-07-09T07:49:40;9.40;;;5.43;;
5690;SDS011;2870;42.680;23.364;2023-07-09T07:52:07;8.67;;;5.50;;
5690;SDS011;2870;42.680;23.364;2023-07-09T07:54:36;8.97;;;5.20;;
5690;SDS011;2870;42.680;23.364;2023-07-09T07:57:03;10.97;;;5.47;;
5690;SDS011;2870;42.680;23.364;2023-07-09T07:59:34;9.53;;;4.80;;
5690;SDS011;2870;42.680;23.364;2023-07-09T08:02:01;13.13;;;5.10;;
5690;SDS011;2870;42.680;23.364;2023-07-09T08:04:28;13.40;;;5.63;;
5690;SDS011;2870;42.680;23.364;2023-07-09T08:06:55;8.97;;;5.00;;
5690;SDS011;2870;42.680;23.364;2023-07-09T08:09:22;10.10;;;5.30;;
5690;SDS011;2870;42.680;23.364;2023-07-09T08:11:50;10.63;;;5.20;;
5690;SDS011;2870;42.680;23.364;2023-07-09T08:14:17;10.07;;;5.13;;
5690;SDS011;2870;42.680;23.364;2023-07-09T08:16:43;9.10;;;4.83;;
5690;SDS011;2870;42.680;23.364;2023-07-09T08:19:11;13.10;;;5.20;;
5690;SDS011;2870;42.680;23.364;2023-07-09T08:21:37;11.83;;;4.40;;
5690;SDS011;2870;42.680;23.364;2023-07-09T08:24:05;7.47;;;4.70;;
5690;SDS011;2870;42.680;23.364;2023-07-09T08:26:32;9.90;;;4.87;;
5690;SDS011;2870;42.680;23.364;2023-07-09T08:29:00;10.67;;;4.63;;
5690;SDS011;2870;42.680;23.364;2023-07-09T08:31:27;9.77;;;4.13;;
5690;SDS011;2870;42.680;23.364;2023-07-09T08:33:54;7.63;;;4.50;;
5690;SDS011;2870;42.680;23.364;2023-07-09T08:36:21;6.47;;;4.40;;
5690;SDS011;2870;42.680;23.364;2023-07-09T08:38:48;10.40;;;5.17;;
5690;SDS011;2870;42.680;23.364;2023-07-09T08:41:18;7.90;;;4.17;;
5690;SDS011;2870;42.680;23.364;2023-07-09T08:43:54;11.43;;;4.47;;
5690;SDS011;2870;42.680;23.364;2023-07-09T08:46:29;8.37;;;4.80;;
5690;SDS011;2870;42.680;23.364;2023-07-09T08:49:08;11.30;;;5.20;;
5690;SDS011;2870;42.680;23.364;2023-07-09T08:51:43;10.20;;;5.03;;
5690;SDS011;2870;42.680;23.364;2023-07-09T08:54:20;11.10;;;4.47;;
5690;SDS011;2870;42.680;23.364;2023-07-09T08:56:54;8.10;;;4.93;;
5690;SDS011;2870;42.680;23.364;2023-07-09T08:59:26;12.53;;;5.73;;
5690;SDS011;2870;42.680;23.364;2023-07-09T09:01:57;7.97;;;4.50;;
5690;SDS011;2870;42.680;23.364;2023-07-09T09:04:28;10.13;;;5.00;;
5690;SDS011;2870;42.680;23.364;2023-07-09T09:06:59;9.07;;;4.60;;
5690;SDS011;2870;42.680;23.364;2023-07-09T09:09:33;9.63;;;4.93;;
5690;SDS011;2870;42.680;23.364;2023-07-09T09:12:09;7.43;;;4.40;;
5690;SDS011;2870;42.680;23.364;2023-07-09T09:14:41;7.23;;;4.30;;
5690;SDS011;2870;42.680;23.364;2023-07-09T09:17:12;12.03;;;4.50;;
5690;SDS011;2870;42.680;23.364;2023-07-09T09:19:46;9.10;;;4.70;;
5690;SDS011;2870;42.680;23.364;2023-07-09T09:22:17;9.17;;;4.57;;
5690;SDS011;2870;42.680;23.364;2023-07-09T09:24:53;9.87;;;4.80;;
5690;SDS011;2870;42.680;23.364;2023-07-09T09:27:24;8.17;;;4.33;;
5690;SDS011;2870;42.680;23.364;2023-07-09T09:29:51;8.17;;;4.50;;
5690;SDS011;2870;42.680;23.364;2023-07-09T09:32:20;7.50;;;4.90;;
5690;SDS011;2870;42.680;23.364;2023-07-09T09:34:51;8.73;;;4.90;;
5690;SDS011;2870;42.680;23.364;2023-07-09T09:37:24;7.23;;;4.40;;
5690;SDS011;2870;42.680;23.364;2023-07-09T09:39:53;7.20;;;4.57;;
5690;SDS011;2870;42.680;23.364;2023-07-09T09:42:23;6.70;;;4.30;;
5690;SDS011;2870;42.680;23.364;2023-07-09T09:44:50;11.00;;;4.67;;
5690;SDS011;2870;42.680;23.364;2023-07-09T09:47:21;7.73;;;4.90;;
5690;SDS011;2870;42.680;23.364;2023-07-09T09:49:48;8.00;;;4.30;;
5690;SDS011;2870;42.680;23.364;2023-07-09T09:52:16;10.37;;;4.90;;
5690;SDS011;2870;42.680;23.364;2023-07-09T09:54:46;14.00;;;4.87;;
5690;SDS011;2870;42.680;23.364;2023-07-09T09:57:18;9.30;;;5.07;;
5690;SDS011;2870;42.680;23.364;2023-07-09T09:59:47;10.90;;;4.60;;
5690;SDS011;2870;42.680;23.364;2023-07-09T10:02:15;8.23;;;4.67;;
5690;SDS011;2870;42.680;23.364;2023-07-09T10:04:46;10.90;;;5.17;;
5690;SDS011;2870;42.680;23.364;2023-07-09T10:07:18;6.70;;;4.23;;
5690;SDS011;2870;42.680;23.364;2023-07-09T10:09:50;7.33;;;4.47;;
5690;SDS011;2870;42.680;23.364;2023-07-09T10:12:23;10.67;;;4.07;;
5690;SDS011;2870;42.680;23.364;2023-07-09T10:15:04;10.63;;;4.10;;
5690;SDS011;2870;42.680;23.364;2023-07-09T10:17:42;7.63;;;4.13;;
5690;SDS011;2870;42.680;23.364;2023-07-09T10:20:23;8.50;;;4.43;;
5690;SDS011;2870;42.680;23.364;2023-07-09T10:22:54;7.33;;;4.23;;
5690;SDS011;2870;42.680;23.364;2023-07-09T10:25:29;7.03;;;4.37;;
5690;SDS011;2870;42.680;23.364;2023-07-09T10:30:58;7.97;;;4.10;;
5690;SDS011;2870;42.680;23.364;2023-07-09T10:33:35;8.10;;;4.97;;
5690;SDS011;2870;42.680;23.364;2023-07-09T10:36:19;7.20;;;3.77;;
5690;SDS011;2870;42.680;23.364;2023-07-09T10:38:57;8.80;;;3.37;;
5690;SDS011;2870;42.680;23.364;2023-07-09T10:41:28;5.43;;;3.50;;
5690;SDS011;2870;42.680;23.364;2023-07-09T10:43:59;8.37;;;3.70;;
5690;SDS011;2870;42.680;23.364;2023-07-09T10:46:34;5.73;;;3.20;;
5690;SDS011;2870;42.680;23.364;2023-07-09T10:49:05;10.13;;;4.27;;
5690;SDS011;2870;42.680;23.364;2023-07-09T10:51:39;7.83;;;3.97;;
5690;SDS011;2870;42.680;23.364;2023-07-09T10:54:15;11.00;;;3.70;;
5690;SDS011;2870;42.680;23.364;2023-07-09T10:56:52;6.13;;;3.67;;
5690;SDS011;2870;42.680;23.364;2023-07-09T10:59:24;6.93;;;3.90;;
5690;SDS011;2870;42.680;23.364;2023-07-09T11:01:56;6.53;;;3.70;;
5690;SDS011;2870;42.680;23.364;2023-07-09T11:04:28;12.10;;;4.07;;
5690;SDS011;2870;42.680;23.364;2023-07-09T11:06:59;9.87;;;4.17;;
5690;SDS011;2870;42.680;23.364;2023-07-09T11:09:30;8.83;;;4.50;;
5690;SDS011;2870;42.680;23.364;2023-07-09T11:11:59;8.63;;;4.10;;
5690;SDS011;2870;42.680;23.364;2023-07-09T11:14:32;6.80;;;4.10;;
5690;SDS011;2870;42.680;23.364;2023-07-09T11:17:01;8.87;;;4.90;;
5690;SDS011;2870;42.680;23.364;2023-07-09T11:19:30;7.57;;;4.40;;
5690;SDS011;2870;42.680;23.364;2023-07-09T11:22:02;8.10;;;4.40;;
5690;SDS011;2870;42.680;23.364;2023-07-09T11:24:33;9.10;;;3.63;;
5690;SDS011;2870;42.680;23.364;2023-07-09T11:27:02;13.07;;;4.00;;
5690;SDS011;2870;42.680;23.364;2023-07-09T11:29:47;7.13;;;4.30;;
5690;SDS011;2870;42.680;23.364;2023-07-09T11:32:18;11.90;;;3.90;;
5690;SDS011;2870;42.680;23.364;2023-07-09T11:34:47;7.60;;;4.00;;
5690;SDS011;2870;42.680;23.364;2023-07-09T11:37:15;10.17;;;4.50;;
5690;SDS011;2870;42.680;23.364;2023-07-09T11:39:43;7.47;;;4.37;;
5690;SDS011;2870;42.680;23.364;2023-07-09T11:42:23;6.00;;;3.63;;
5690;SDS011;2870;42.680;23.364;2023-07-09T11:44:57;8.13;;;3.60;;
5690;SDS011;2870;42.680;23.364;2023-07-09T11:47:29;9.43;;;4.07;;
5690;SDS011;2870;42.680;23.364;2023-07-09T11:50:01;7.07;;;4.50;;
5690;SDS011;2870;42.680;23.364;2023-07-09T11:52:32;7.00;;;3.80;;
5690;SDS011;2870;42.680;23.364;2023-07-09T11:55:04;8.17;;;4.53;;
5690;SDS011;2870;42.680;23.364;2023-07-09T11:57:47;8.20;;;3.83;;
5690;SDS011;2870;42.680;23.364;2023-07-09T12:00:15;6.33;;;3.80;;
5690;SDS011;2870;42.680;23.364;2023-07-09T12:02:42;9.90;;;4.23;;
5690;SDS011;2870;42.680;23.364;2023-07-09T12:05:09;7.37;;;4.03;;
5690;SDS011;2870;42.680;23.364;2023-07-09T12:07:38;10.10;;;4.50;;
5690;SDS011;2870;42.680;23.364;2023-07-09T12:10:11;8.03;;;4.40;;
5690;SDS011;2870;42.680;23.364;2023-07-09T12:12:46;10.30;;;4.17;;
5690;SDS011;2870;42.680;23.364;2023-07-09T12:15:16;6.97;;;3.90;;
5690;SDS011;2870;42.680;23.364;2023-07-09T12:17:52;8.67;;;4.50;;
5690;SDS011;2870;42.680;23.364;2023-07-09T12:20:23;7.70;;;4.17;;
5690;SDS011;2870;42.680;23.364;2023-07-09T12:22:51;10.33;;;4.50;;
5690;SDS011;2870;42.680;23.364;2023-07-09T12:25:19;9.30;;;4.03;;
5690;SDS011;2870;42.680;23.364;2023-07-09T12:27:50;12.23;;;4.30;;
5690;SDS011;2870;42.680;23.364;2023-07-09T12:30:18;9.07;;;4.40;;
5690;SDS011;2870;42.680;23.364;2023-07-09T12:32:45;6.67;;;4.07;;
5690;SDS011;2870;42.680;23.364;2023-07-09T12:35:14;8.87;;;4.50;;
5690;SDS011;2870;42.680;23.364;2023-07-09T12:37:43;8.77;;;4.50;;
5690;SDS011;2870;42.680;23.364;2023-07-09T12:40:14;7.57;;;4.23;;
5690;SDS011;2870;42.680;23.364;2023-07-09T12:42:42;7.93;;;4.90;;
5690;SDS011;2870;42.680;23.364;2023-07-09T12:45:14;8.17;;;4.60;;
5690;SDS011;2870;42.680;23.364;2023-07-09T12:47:43;10.80;;;4.33;;
5690;SDS011;2870;42.680;23.364;2023-07-09T12:50:23;10.13;;;4.50;;
5690;SDS011;2870;42.680;23.364;2023-07-09T12:52:56;9.93;;;4.23;;
5690;SDS011;2870;42.680;23.364;2023-07-09T12:55:29;9.47;;;4.23;;
5690;SDS011;2870;42.680;23.364;2023-07-09T12:58:07;7.93;;;4.37;;
5690;SDS011;2870;42.680;23.364;2023-07-09T13:00:36;7.77;;;3.93;;
5690;SDS011;2870;42.680;23.364;2023-07-09T13:03:03;6.40;;;3.87;;
5690;SDS011;2870;42.680;23.364;2023-07-09T13:05:38;18.10;;;9.40;;
5690;SDS011;2870;42.680;23.364;2023-07-09T13:08:04;16.03;;;9.30;;
5690;SDS011;2870;42.680;23.364;2023-07-09T13:10:38;7.53;;;4.10;;
5690;SDS011;2870;42.680;23.364;2023-07-09T13:13:10;7.83;;;4.13;;
5690;SDS011;2870;42.680;23.364;2023-07-09T13:15:40;12.13;;;4.17;;
5690;SDS011;2870;42.680;23.364;2023-07-09T13:18:09;8.80;;;4.27;;
5690;SDS011;2870;42.680;23.364;2023-07-09T13:20:38;8.53;;;3.70;;
5690;SDS011;2870;42.680;23.364;2023-07-09T13:23:08;7.07;;;4.50;;
5690;SDS011;2870;42.680;23.364;2023-07-09T13:25:37;8.43;;;4.43;;
5690;SDS011;2870;42.680;23.364;2023-07-09T13:28:07;9.60;;;4.27;;
5690;SDS011;2870;42.680;23.364;2023-07-09T13:30:41;9.03;;;4.80;;
5690;SDS011;2870;42.680;23.364;2023-07-09T13:33:08;11.03;;;4.37;;
5690;SDS011;2870;42.680;23.364;2023-07-09T13:35:36;9.10;;;4.73;;
5690;SDS011;2870;42.680;23.364;2023-07-09T13:38:05;11.40;;;6.50;;
5690;SDS011;2870;42.680;23.364;2023-07-09T13:40:40;7.47;;;4.37;;
5690;SDS011;2870;42.680;23.364;2023-07-09T13:43:09;7.30;;;4.00;;
5690;SDS011;2870;42.680;23.364;2023-07-09T13:45:39;12.93;;;4.60;;
5690;SDS011;2870;42.680;23.364;2023-07-09T13:48:09;11.73;;;7.40;;
5690;SDS011;2870;42.680;23.364;2023-07-09T13:50:39;6.50;;;4.17;;
5690;SDS011;2870;42.680;23.364;2023-07-09T13:53:09;11.33;;;4.70;;
5690;SDS011;2870;42.680;23.364;2023-07-09T13:55:42;11.80;;;4.30;;
5690;SDS011;2870;42.680;23.364;2023-07-09T13:58:09;14.83;;;4.83;;
5690;SDS011;2870;42.680;23.364;2023-07-09T14:00:37;9.70;;;5.00;;
5690;SDS011;2870;42.680;23.364;2023-07-09T14:03:07;8.90;;;4.63;;
5690;SDS011;2870;42.680;23.364;2023-07-09T14:05:39;6.60;;;4.00;;
5690;SDS011;2870;42.680;23.364;2023-07-09T14:08:07;7.70;;;4.40;;
5690;SDS011;2870;42.680;23.364;2023-07-09T14:10:34;10.07;;;5.27;;
5690;SDS011;2870;42.680;23.364;2023-07-09T14:13:02;14.20;;;4.53;;
5690;SDS011;2870;42.680;23.364;2023-07-09T14:15:30;9.37;;;4.60;;
5690;SDS011;2870;42.680;23.364;2023-07-09T14:17:57;8.13;;;4.80;;
5690;SDS011;2870;42.680;23.364;2023-07-09T14:20:24;8.03;;;4.43;;
5690;SDS011;2870;42.680;23.364;2023-07-09T14:22:51;10.20;;;4.83;;
5690;SDS011;2870;42.680;23.364;2023-07-09T14:25:19;10.27;;;5.10;;
5690;SDS011;2870;42.680;23.364;2023-07-09T14:27:48;6.80;;;4.13;;
5690;SDS011;2870;42.680;23.364;2023-07-09T14:30:19;14.50;;;4.50;;
5690;SDS011;2870;42.680;23.364;2023-07-09T14:32:48;8.20;;;5.13;;
5690;SDS011;2870;42.680;23.364;2023-07-09T14:35:17;7.80;;;4.63;;
5690;SDS011;2870;42.680;23.364;2023-07-09T14:37:45;10.83;;;4.30;;
5690;SDS011;2870;42.680;23.364;2023-07-09T14:40:14;12.87;;;4.60;;
5690;SDS011;2870;42.680;23.364;2023-07-09T14:42:42;13.57;;;4.47;;
5690;SDS011;2870;42.680;23.364;2023-07-09T14:45:16;14.43;;;5.00;;
5690;SDS011;2870;42.680;23.364;2023-07-09T14:47:47;11.00;;;3.90;;
5690;SDS011;2870;42.680;23.364;2023-07-09T14:50:14;12.17;;;6.27;;
5690;SDS011;2870;42.680;23.364;2023-07-09T14:52:42;9.67;;;4.40;;
5690;SDS011;2870;42.680;23.364;2023-07-09T14:55:15;13.50;;;4.60;;
5690;SDS011;2870;42.680;23.364;2023-07-09T14:57:43;13.60;;;4.73;;
5690;SDS011;2870;42.680;23.364;2023-07-09T15:00:14;8.43;;;4.20;;
5690;SDS011;2870;42.680;23.364;2023-07-09T15:02:43;8.93;;;3.80;;
5690;SDS011;2870;42.680;23.364;2023-07-09T15:05:13;12.53;;;4.60;;
5690;SDS011;2870;42.680;23.364;2023-07-09T15:07:41;10.37;;;4.77;;
5690;SDS011;2870;42.680;23.364;2023-07-09T15:10:12;8.33;;;5.20;;
5690;SDS011;2870;42.680;23.364;2023-07-09T15:12:40;7.87;;;3.47;;
5690;SDS011;2870;42.680;23.364;2023-07-09T15:15:12;12.63;;;4.70;;
5690;SDS011;2870;42.680;23.364;2023-07-09T15:17:41;8.03;;;4.70;;